createdAt,value
2022-11-24T00:01:17.055Z,25.37
2022-11-24T00:05:26.254Z,17.80
2022-11-24T00:09:35.420Z,18.20
2022-11-24T00:13:44.914Z,15.50
2022-11-24T00:17:55.697Z,16.33
2022-11-24T00:22:04.934Z,21.40
2022-11-24T00:26:15.695Z,19.30
2022-11-24T00:30:25.155Z,22.03
2022-11-24T00:34:36.184Z,24.27
2022-11-24T00:38:46.279Z,21.87
2022-11-24T00:42:55.375Z,18.00
2022-11-24T00:47:04.676Z,17.43
2022-11-24T00:51:17.853Z,26.47
2022-11-24T00:55:27.077Z,22.17
2022-11-24T00:59:36.335Z,26.70
2022-11-24T01:03:47.117Z,26.23
2022-11-24T01:07:57.876Z,22.70
2022-11-24T01:12:09.301Z,23.00
2022-11-24T01:16:20.992Z,22.50
2022-11-24T01:20:30.256Z,35.73
2022-11-24T01:24:41.110Z,20.53
2022-11-24T01:28:54.237Z,27.20
2022-11-24T01:33:03.458Z,23.40
2022-11-24T01:37:12.754Z,22.13
2022-11-24T01:41:25.200Z,25.13
2022-11-24T01:45:37.418Z,21.80
2022-11-24T01:49:50.494Z,26.83
2022-11-24T01:54:04.396Z,23.03
2022-11-24T01:58:20.936Z,24.90
2022-11-24T02:02:31.486Z,21.00
2022-11-24T02:06:44.855Z,19.93
2022-11-24T02:10:54.095Z,20.67
2022-11-24T02:15:04.957Z,20.43
2022-11-24T02:19:20.177Z,25.43
2022-11-24T02:23:38.302Z,22.50
2022-11-24T02:27:53.714Z,21.97
2022-11-24T02:32:08.638Z,23.70
2022-11-24T02:36:18.117Z,21.13
2022-11-24T02:40:31.396Z,19.77
2022-11-24T02:44:46.958Z,20.57
2022-11-24T02:48:57.174Z,24.70
2022-11-24T02:53:06.391Z,22.83
2022-11-24T02:57:15.797Z,17.33
2022-11-24T03:01:26.606Z,25.80
2022-11-24T03:05:35.734Z,29.63
2022-11-24T03:09:45.078Z,23.83
2022-11-24T03:13:54.334Z,16.93
2022-11-24T03:18:05.503Z,19.20
2022-11-24T03:22:15.597Z,27.57
2022-11-24T03:26:26.694Z,25.47
2022-11-24T03:30:36.079Z,21.43
2022-11-24T03:34:47.240Z,21.83
2022-11-24T03:38:56.855Z,27.63
2022-11-24T03:43:06.098Z,24.50
2022-11-24T03:47:15.177Z,23.60
2022-11-24T03:51:26.056Z,25.77
2022-11-24T03:55:35.299Z,19.93
2022-11-24T03:59:45.736Z,24.50
2022-11-24T04:03:54.943Z,22.80
2022-11-24T04:08:06.019Z,20.63
2022-11-24T04:12:32.377Z,23.93
2022-11-24T04:16:41.535Z,18.47
2022-11-24T04:20:52.119Z,28.33
2022-11-24T04:25:02.962Z,24.77
2022-11-24T04:29:12.283Z,25.40
2022-11-24T04:33:21.436Z,22.60
2022-11-24T04:37:30.880Z,26.23
2022-11-24T04:41:41.483Z,19.27
2022-11-24T04:45:50.719Z,25.93
2022-11-24T04:49:59.950Z,24.43
2022-11-24T04:54:09.818Z,30.10
2022-11-24T04:58:20.456Z,25.77
2022-11-24T05:02:29.715Z,20.23
2022-11-24T05:06:38.878Z,25.57
2022-11-24T05:10:48.311Z,23.00
2022-11-24T05:14:59.549Z,31.97
2022-11-24T05:19:08.891Z,26.10
2022-11-24T05:23:18.432Z,21.37
2022-11-24T05:27:27.490Z,28.23
2022-11-24T05:31:38.430Z,29.43
2022-11-24T05:35:48.152Z,31.57
2022-11-24T05:39:57.749Z,35.10
2022-11-24T05:44:07.431Z,34.43
2022-11-24T05:48:18.482Z,31.93
2022-11-24T05:52:27.689Z,30.50
2022-11-24T05:56:36.849Z,25.87
2022-11-24T06:00:45.847Z,20.77
2022-11-24T06:04:56.687Z,23.20
2022-11-24T06:09:06.109Z,23.23
2022-11-24T06:13:16.230Z,22.30
2022-11-24T06:17:25.752Z,23.77
2022-11-24T06:21:36.532Z,20.83
2022-11-24T06:25:51.302Z,25.13
2022-11-24T06:30:01.077Z,22.87
2022-11-24T06:34:12.031Z,22.13
2022-11-24T06:38:24.381Z,24.17
2022-11-24T06:42:34.709Z,22.30
2022-11-24T06:46:44.149Z,24.73
2022-11-24T06:50:53.808Z,21.50
2022-11-24T06:55:04.665Z,25.17
2022-11-24T06:59:19.470Z,22.17
2022-11-24T07:03:28.813Z,22.03
2022-11-24T07:07:38.130Z,26.50
2022-11-24T07:11:48.868Z,19.07
2022-11-24T07:15:57.926Z,28.57
2022-11-24T07:20:08.170Z,26.93
2022-11-24T07:24:17.330Z,24.97
2022-11-24T07:28:28.049Z,22.70
2022-11-24T07:32:37.428Z,29.90
2022-11-24T07:36:46.649Z,23.47
2022-11-24T07:40:55.692Z,24.13
2022-11-24T07:45:07.370Z,24.00
2022-11-24T07:49:16.809Z,28.77
2022-11-24T07:53:25.888Z,19.17
2022-11-24T07:57:35.169Z,30.90
2022-11-24T08:01:46.155Z,29.70
2022-11-24T08:10:28.768Z,25.60
2022-11-24T08:14:38.067Z,22.03
2022-11-24T08:18:52.315Z,18.60
2022-11-24T08:23:01.589Z,21.00
2022-11-24T08:27:10.906Z,25.20
2022-11-24T08:31:20.825Z,16.83
2022-11-24T08:35:31.509Z,23.33
2022-11-24T08:39:40.909Z,25.73
2022-11-24T08:43:50.007Z,24.30
2022-11-24T08:47:59.509Z,24.17
2022-11-24T08:52:10.769Z,29.50
2022-11-24T08:56:19.952Z,29.10
2022-11-24T09:00:29.182Z,28.60
2022-11-24T09:04:38.735Z,24.47
2022-11-24T09:08:50.508Z,20.30
2022-11-24T09:12:59.667Z,24.13
2022-11-24T09:17:08.992Z,19.73
2022-11-24T09:21:20.032Z,26.30
2022-11-24T09:25:31.989Z,19.10
2022-11-24T09:29:41.510Z,24.13
2022-11-24T09:33:50.928Z,21.53
2022-11-24T09:38:00.209Z,20.17
2022-11-24T09:42:16.909Z,25.43
2022-11-24T09:46:32.637Z,29.20
2022-11-24T09:50:42.109Z,18.40
2022-11-24T09:54:57.107Z,24.27
2022-11-24T09:59:15.111Z,22.63
2022-11-24T10:03:29.409Z,21.40
2022-11-24T10:07:47.134Z,27.00
2022-11-24T10:12:06.067Z,20.47
2022-11-24T10:16:23.600Z,23.77
2022-11-24T10:20:47.812Z,27.40
2022-11-24T10:25:16.310Z,24.80
2022-11-24T10:29:32.423Z,27.03
2022-11-24T10:33:45.989Z,29.47
2022-11-24T10:38:03.700Z,28.67
2022-11-24T10:42:20.187Z,24.47
2022-11-24T10:46:34.935Z,31.90
2022-11-24T10:50:49.828Z,25.20
2022-11-24T10:55:01.411Z,30.20
2022-11-24T10:59:24.409Z,26.70
2022-11-24T11:03:35.148Z,20.70
2022-11-24T11:07:47.353Z,28.80
2022-11-24T11:11:56.970Z,22.53
2022-11-24T11:16:26.827Z,33.03
2022-11-24T11:20:37.030Z,25.97
2022-11-24T11:24:50.169Z,27.90
2022-11-24T11:38:07.005Z,28.23
2022-11-24T11:42:45.207Z,30.27
2022-11-24T11:46:50.682Z,25.57
2022-11-24T11:51:22.821Z,28.77
2022-11-24T11:55:49.507Z,32.37
2022-11-24T12:00:10.026Z,30.27
2022-11-24T12:04:26.233Z,33.60
2022-11-24T12:09:17.927Z,29.67
2022-11-24T12:13:44.111Z,40.90
2022-11-24T12:18:02.783Z,35.90
2022-11-24T12:22:22.226Z,36.40
2022-11-24T12:26:39.881Z,34.60
2022-11-24T12:31:03.093Z,30.93
2022-11-24T12:35:22.082Z,37.83
2022-11-24T12:39:37.800Z,41.53
2022-11-24T12:43:53.735Z,39.13
2022-11-24T12:48:28.387Z,48.50
2022-11-24T12:52:43.929Z,33.87
2022-11-24T12:57:00.196Z,27.10
2022-11-24T13:01:18.967Z,30.07
2022-11-24T13:05:34.746Z,39.43
2022-11-24T13:10:17.068Z,40.90
2022-11-24T13:14:32.328Z,36.03
2022-11-24T13:18:54.287Z,29.70
2022-11-24T13:23:04.988Z,30.33
2022-11-24T13:27:40.638Z,38.50
2022-11-24T13:31:51.311Z,38.40
2022-11-24T13:36:32.108Z,38.00
2022-11-24T13:41:13.029Z,41.03
2022-11-24T13:45:59.025Z,39.93
2022-11-24T13:50:25.988Z,38.93
2022-11-24T13:54:36.267Z,29.50
2022-11-24T13:58:46.753Z,37.17
2022-11-24T14:02:59.328Z,31.90
2022-11-24T14:07:15.312Z,28.67
2022-11-24T14:11:26.710Z,27.10
2022-11-24T14:15:36.788Z,28.60
2022-11-24T14:19:47.607Z,28.47
2022-11-24T14:24:01.898Z,25.93
2022-11-24T14:28:23.217Z,23.97
2022-11-24T14:32:32.834Z,27.87
2022-11-24T14:36:42.712Z,27.70
2022-11-24T14:40:56.310Z,19.90
2022-11-24T14:45:06.967Z,12.20
2022-11-24T14:49:22.157Z,11.00
2022-11-24T14:53:32.315Z,14.70
2022-11-24T14:57:44.109Z,15.43
2022-11-24T15:01:53.645Z,15.43
2022-11-24T15:06:03.091Z,22.27
2022-11-24T15:10:22.577Z,14.63
2022-11-24T15:14:46.983Z,21.90
2022-11-24T15:19:01.066Z,18.73
2022-11-24T15:23:24.790Z,18.47
2022-11-24T15:27:34.333Z,19.47
2022-11-24T15:31:49.351Z,22.97
2022-11-24T15:36:01.974Z,20.27
2022-11-24T15:40:13.449Z,22.23
2022-11-24T15:44:22.923Z,31.07
2022-11-24T15:48:34.379Z,19.13
2022-11-24T15:52:44.849Z,23.07
2022-11-24T15:56:54.232Z,22.43
2022-11-24T16:01:03.803Z,24.13
2022-11-24T16:05:16.716Z,30.20
2022-11-24T16:09:26.114Z,23.53
2022-11-24T16:13:35.551Z,18.97
2022-11-24T16:17:45.245Z,26.83
2022-11-24T16:21:56.349Z,27.77
2022-11-24T16:26:06.130Z,27.10
2022-11-24T16:30:16.190Z,26.27
2022-11-24T16:34:25.933Z,23.23
2022-11-24T16:38:37.133Z,20.93
2022-11-24T16:42:48.480Z,21.83
2022-11-24T16:46:58.499Z,21.87
2022-11-24T16:51:08.373Z,20.83
2022-11-24T16:55:19.429Z,22.20
2022-11-24T16:59:28.631Z,24.97
2022-11-24T17:03:37.971Z,22.17
2022-11-24T17:07:47.214Z,21.30
2022-11-24T17:11:59.033Z,23.87
2022-11-24T17:16:10.359Z,20.97
2022-11-24T17:20:19.891Z,27.47
2022-11-24T17:24:29.007Z,25.50
2022-11-24T17:28:41.167Z,26.17
2022-11-24T17:32:56.414Z,24.33
2022-11-24T17:37:06.323Z,22.27
2022-11-24T17:41:15.565Z,23.03
2022-11-24T17:45:27.648Z,19.07
2022-11-24T17:49:36.986Z,18.27
2022-11-24T17:53:49.674Z,20.27
2022-11-24T17:57:59.314Z,23.97
2022-11-24T18:02:11.520Z,15.83
2022-11-24T18:06:21.045Z,20.63
2022-11-24T18:10:30.166Z,17.27
2022-11-24T18:14:39.376Z,16.40
2022-11-24T18:18:51.212Z,17.73
2022-11-24T18:23:05.893Z,19.17
2022-11-24T18:27:15.478Z,20.00
2022-11-24T18:31:24.694Z,19.13
2022-11-24T18:35:35.626Z,20.03
2022-11-24T18:39:45.297Z,20.27
2022-11-24T18:43:54.629Z,17.83
2022-11-24T18:48:04.113Z,19.70
2022-11-24T18:52:14.945Z,21.33
2022-11-24T18:56:24.295Z,19.77
2022-11-24T19:00:33.761Z,23.57
2022-11-24T19:04:43.440Z,15.13
2022-11-24T19:08:56.423Z,18.80
2022-11-24T19:13:06.133Z,16.30
2022-11-24T19:17:15.516Z,20.83
2022-11-24T19:21:25.172Z,19.80
2022-11-24T19:25:35.726Z,18.53
2022-11-24T19:29:45.550Z,12.70
2022-11-24T19:33:55.689Z,14.40
2022-11-24T19:38:04.867Z,12.20
2022-11-24T19:42:15.648Z,16.80
2022-11-24T19:46:27.810Z,20.80
2022-11-24T19:50:37.117Z,14.07
2022-11-24T19:54:46.831Z,17.23
2022-11-24T19:58:57.957Z,19.07
2022-11-24T20:03:07.527Z,17.47
2022-11-24T20:07:17.102Z,11.10
2022-11-24T20:11:26.495Z,13.90
2022-11-24T20:15:37.448Z,15.47
2022-11-24T20:19:46.628Z,13.87
2022-11-24T20:23:57.253Z,16.97
2022-11-24T20:28:06.745Z,12.33
2022-11-24T20:32:19.932Z,14.67
2022-11-24T20:36:31.381Z,10.37
2022-11-24T20:40:40.446Z,12.93
2022-11-24T20:44:50.075Z,13.17
2022-11-24T20:49:03.759Z,9.97
2022-11-24T20:53:12.926Z,13.73
2022-11-24T20:57:22.190Z,11.33
2022-11-24T21:01:35.231Z,13.13
2022-11-24T21:05:45.992Z,11.43
2022-11-24T21:09:55.173Z,16.30
2022-11-24T21:14:04.774Z,15.70
2022-11-24T21:18:13.992Z,13.77
2022-11-24T21:22:24.692Z,13.57
2022-11-24T21:26:36.029Z,12.20
2022-11-24T21:30:45.228Z,9.93
2022-11-24T21:34:54.492Z,13.03
2022-11-24T21:39:06.069Z,10.63
2022-11-24T21:43:15.879Z,14.00
2022-11-24T21:47:25.151Z,9.23
2022-11-24T21:52:01.590Z,11.37
2022-11-24T21:56:28.890Z,13.57
2022-11-24T22:00:47.177Z,13.07
2022-11-24T22:04:57.453Z,14.10
2022-11-24T22:09:47.052Z,16.20
2022-11-24T22:14:07.090Z,15.50
2022-11-24T22:18:16.274Z,13.70
2022-11-24T22:22:53.810Z,14.43
2022-11-24T22:27:07.830Z,14.50
2022-11-24T22:31:24.108Z,11.50
2022-11-24T22:35:33.349Z,9.80
2022-11-24T22:39:42.588Z,9.30
2022-11-24T22:43:52.126Z,10.47
2022-11-24T22:48:02.892Z,11.93
2022-11-24T22:52:12.411Z,12.70
2022-11-24T22:56:22.092Z,12.80
2022-11-24T23:00:31.992Z,12.43
2022-11-24T23:04:43.133Z,12.83
2022-11-24T23:08:59.212Z,8.57
2022-11-24T23:13:17.832Z,14.10
2022-11-24T23:17:27.491Z,9.13
2022-11-24T23:21:40.695Z,13.43
2022-11-24T23:25:50.135Z,15.90
2022-11-24T23:29:59.670Z,16.50
2022-11-24T23:34:09.013Z,12.97
2022-11-24T23:38:19.991Z,12.13
2022-11-24T23:42:29.172Z,17.10
2022-11-24T23:46:38.411Z,14.00
2022-11-24T23:50:48.928Z,13.63
2022-11-24T23:55:02.152Z,11.10
2022-11-24T23:59:16.727Z,13.77
